Time;durP1;ratioP1;P1;durP2;ratioP2;P2;SDS_P1;SDS_P2;PMS_P1;PMS_P2;Temp;Humidity;BMP_temperature;BMP_pressure;BME280_temperature;BME280_humidity;BME280_pressure;Samples;Min_cycle;Max_cycle;Signal;HPM_P1;HPM_P2
2023/01/03 00:00:10;;;;;;;0.82;0.80;;;;;;;11.49;41.27;99662.91;6240989;22;20075;-88
2023/01/03 00:02:35;;;;;;;1.73;0.70;;;;;;;11.23;41.28;99630.69;6214642;23;20329;-88
2023/01/03 00:05:01;;;;;;;1.55;0.88;;;;;;;11.34;41.48;99634.56;6214485;23;20008;-88
2023/01/03 00:07:32;;;;;;;1.08;0.73;;;;;;;11.27;41.77;99615.84;6240656;22;20191;-88
2023/01/03 00:10:07;;;;;;;2.28;0.93;;;;;;;11.38;41.79;99633.13;6239263;23;20012;-88
2023/01/03 00:12:32;;;;;;;;;;;;;;;11.63;41.78;99648.44;6189167;23;20071;-88
2023/01/03 00:14:58;;;;;;;1.23;0.80;;;;;;;11.42;41.86;99614.78;6241614;23;20398;-88
2023/01/03 00:17:24;;;;;;;1.65;1.05;;;;;;;11.39;41.88;99610.66;6238775;23;20008;-88
2023/01/03 00:19:50;;;;;;;1.30;1.10;;;;;;;11.67;42.01;99636.28;6239327;23;20078;-88
2023/01/03 00:22:16;;;;;;;3.50;1.38;;;;;;;11.45;42.16;99609.00;6213576;23;20042;-88
2023/01/03 00:24:44;;;;;;;1.50;0.88;;;;;;;11.45;41.99;99599.13;6188796;23;20082;-87
2023/01/03 00:27:10;;;;;;;2.05;1.00;;;;;;;11.46;42.50;99608.78;6239774;22;20004;-87
2023/01/03 00:29:36;;;;;;;2.00;1.10;;;;;;;11.42;42.33;99594.19;6213292;23;20032;-88
2023/01/03 00:32:02;;;;;;;1.80;1.00;;;;;;;11.46;42.40;99586.56;6239951;22;20384;-88
2023/01/03 00:34:28;;;;;;;3.17;1.20;;;;;;;11.36;42.33;99568.28;6188866;23;20392;-88
2023/01/03 00:36:53;;;;;;;1.77;0.88;;;;;;;11.53;42.43;99579.31;6238995;23;20004;-88
2023/01/03 00:39:19;;;;;;;1.50;1.02;;;;;;;11.43;42.63;99561.06;6213109;23;20082;-88
2023/01/03 00:41:45;;;;;;;1.83;1.05;;;;;;;11.60;42.40;99584.63;6240237;22;20079;-88
2023/01/03 00:44:10;;;;;;;1.27;0.90;;;;;;;11.60;42.84;99590.00;6188803;23;20004;-88
2023/01/03 00:46:39;;;;;;;1.52;1.05;;;;;;;11.60;42.69;99573.94;6188321;23;20382;-88
2023/01/03 00:49:08;;;;;;;2.35;1.08;;;;;;;11.51;42.75;99560.00;6239542;23;20429;-88
2023/01/03 00:51:35;;;;;;;1.83;1.00;;;;;;;11.71;42.69;99586.66;6238894;23;20015;-88
2023/01/03 00:54:02;;;;;;;2.20;0.90;;;;;;;11.87;42.89;99606.72;6215186;23;20421;-88
2023/01/03 00:56:32;;;;;;;1.50;0.98;;;;;;;11.62;42.94;99555.81;6240520;23;20544;-88
2023/01/03 00:58:57;;;;;;;1.38;1.10;;;;;;;11.54;42.84;99540.00;6240431;23;20030;-88
2023/01/03 01:01:34;;;;;;;1.65;1.00;;;;;;;11.78;43.17;99566.00;6239561;23;20087;-88
2023/01/03 01:04:07;;;;;;;2.38;1.33;;;;;;;11.57;42.92;99531.53;6240900;23;20007;-88
2023/01/03 01:06:34;;;;;;;1.77;1.10;;;;;;;11.82;43.18;99567.22;6191268;23;20011;-88
2023/01/03 01:09:02;;;;;;;1.20;0.93;;;;;;;11.64;43.18;99533.16;6190998;23;20008;-88
2023/01/03 01:11:31;;;;;;;1.13;0.90;;;;;;;11.75;42.90;99553.06;6215128;23;20703;-87
2023/01/03 01:13:57;;;;;;;2.15;1.35;;;;;;;11.62;42.75;99526.38;6242989;22;19996;-88
2023/01/03 01:16:26;;;;;;;2.13;1.10;;;;;;;11.91;43.13;99564.31;6242584;22;20066;-88
2023/01/03 01:18:54;;;;;;;2.13;1.27;;;;;;;11.82;43.25;99540.44;6215505;23;20015;-88
2023/01/03 01:21:22;;;;;;;2.58;1.25;;;;;;;11.92;43.24;99544.53;6239890;23;20450;-88
2023/01/03 01:23:48;;;;;;;1.23;0.80;;;;;;;12.00;43.17;99558.50;6242247;22;20000;-88
2023/01/03 01:26:15;;;;;;;1.70;1.00;;;;;;;11.96;43.36;99545.75;6241966;22;20018;-88
2023/01/03 01:28:41;;;;;;;1.42;0.93;;;;;;;11.96;43.46;99548.41;6215623;23;20007;-88
2023/01/03 01:31:07;;;;;;;2.17;1.10;;;;;;;12.16;43.45;99572.38;6215039;23;20004;-88
2023/01/03 01:33:33;;;;;;;1.63;0.90;;;;;;;11.94;43.52;99510.34;6215274;23;20000;-88
2023/01/03 01:36:08;;;;;;;1.20;0.75;;;;;;;11.98;43.51;99522.22;6240505;23;20053;-88
2023/01/03 01:38:36;;;;;;;1.83;1.10;;;;;;;12.07;43.45;99536.97;6242496;22;20004;-88
2023/01/03 01:41:02;;;;;;;1.42;0.82;;;;;;;11.99;43.43;99516.66;6215800;23;20542;-88
2023/01/03 01:46:28;;;;;;;1.95;0.85;;;;;;;12.07;43.19;99514.75;6219154;23;20399;-88
2023/01/03 01:48:59;;;;;;;1.63;0.90;;;;;;;12.15;43.55;99509.94;6241829;22;20330;-88
2023/01/03 01:51:34;;;;;;;2.25;1.10;;;;;;;12.09;43.56;99491.25;6240035;23;20004;-88
2023/01/03 01:54:01;;;;;;;1.17;0.90;;;;;;;12.29;43.46;99505.28;6242075;22;20011;-88
2023/01/03 01:56:35;;;;;;;1.30;0.90;;;;;;;12.21;43.44;99495.69;6242008;22;20088;-88
2023/01/03 01:59:01;;;;;;;1.35;0.80;;;;;;;12.15;43.54;99488.50;6190297;23;20380;-88
2023/01/03 02:01:27;;;;;;;2.40;1.00;;;;;;;12.38;43.69;99521.88;6240909;23;20000;-87
2023/01/03 02:04:03;;;;;;;1.20;0.90;;;;;;;12.21;43.66;99478.75;6189695;23;20004;-88
2023/01/03 02:06:30;;;;;;;2.17;1.20;;;;;;;12.31;43.55;99479.06;6191200;23;20004;-88
2023/01/03 02:08:58;;;;;;;1.40;0.90;;;;;;;12.38;43.46;99489.72;6215307;23;20004;-88
2023/01/03 02:11:30;;;;;;;2.22;0.95;;;;;;;12.54;43.42;99499.88;6190189;23;20373;-88
2023/01/03 02:14:22;;;;;;;1.40;0.80;;;;;;;12.57;43.66;99487.88;6240293;23;20031;-88
2023/01/03 02:17:09;;;;;;;2.22;1.13;;;;;;;12.61;43.71;99486.41;6214851;23;20070;-88
2023/01/03 02:20:10;;;;;;;1.13;0.80;;;;;;;12.24;43.47;99423.94;6240407;23;20317;-88
2023/01/03 02:22:56;;;;;;;2.17;1.00;;;;;;;12.65;43.54;99481.44;6208537;23;20001;-88
2023/01/03 02:25:30;;;;;;;2.38;1.08;;;;;;;12.52;43.57;99467.13;6239651;23;20008;-88
2023/01/03 02:28:18;;;;;;;1.80;1.08;;;;;;;12.50;43.61;99454.97;6215164;23;20000;-88
2023/01/03 02:31:01;;;;;;;1.95;0.95;;;;;;;12.71;43.49;99469.78;6216881;23;20019;-89
2023/01/03 02:33:31;;;;;;;1.88;0.90;;;;;;;12.58;43.59;99450.16;6214433;23;20008;-88
2023/01/03 02:36:19;;;;;;;1.52;0.93;;;;;;;12.51;43.76;99430.66;6215805;23;20380;-88
2023/01/03 02:39:05;;;;;;;1.95;0.90;;;;;;;12.51;43.79;99436.00;6192213;23;20377;-88
2023/01/03 02:41:37;;;;;;;1.80;0.90;;;;;;;12.80;43.54;99451.53;6217969;23;20008;-88
2023/01/03 02:44:17;;;;;;;1.83;1.00;;;;;;;12.85;43.57;99457.06;6213626;23;20452;-88
2023/01/03 02:47:08;;;;;;;1.65;1.00;;;;;;;12.85;43.43;99446.31;6214903;23;20012;-88
2023/01/03 02:49:42;;;;;;;1.67;0.82;;;;;;;12.55;43.52;99402.34;6241301;22;20388;-88
2023/01/03 02:52:10;;;;;;;1.80;1.10;;;;;;;12.73;43.48;99428.31;6214505;23;20011;-88
2023/01/03 02:54:58;;;;;;;1.73;0.90;;;;;;;12.85;43.64;99440.97;6189577;23;20015;-88
2023/01/03 02:57:26;;;;;;;1.50;0.90;;;;;;;12.87;43.63;99436.22;6216921;23;20005;-88
2023/01/03 02:59:57;;;;;;;1.95;1.20;;;;;;;12.69;43.49;99404.88;6214944;23;20079;-88
2023/01/03 03:02:25;;;;;;;1.83;0.80;;;;;;;12.73;43.80;99395.34;6189250;23;20113;-88
2023/01/03 03:04:54;;;;;;;1.75;0.90;;;;;;;12.99;43.44;99431.72;6189714;23;20058;-88
2023/01/03 03:07:19;;;;;;;2.15;1.00;;;;;;;13.03;43.47;99421.34;6214361;23;20000;-88
2023/01/03 03:15:14;;;;;;;1.92;1.02;;;;;;;12.86;43.55;99387.09;6217794;23;20032;-88
2023/01/03 03:17:40;;;;;;;1.30;0.90;;;;;;;13.03;43.46;99405.25;6188865;23;20020;-88
2023/01/03 03:25:58;;;;;;;1.25;0.98;;;;;;;12.90;43.34;99374.91;6218792;23;20464;-88
2023/01/03 03:28:35;;;;;;;1.52;0.90;;;;;;;12.99;43.68;99380.75;6189824;23;20047;-88
2023/01/03 03:31:28;;;;;;;1.70;0.95;;;;;;;13.26;43.56;99413.41;6216691;23;20004;-88
2023/01/03 03:34:13;;;;;;;1.45;0.85;;;;;;;13.08;43.44;99397.34;6240759;23;20233;-88
2023/01/03 03:36:47;;;;;;;2.17;0.88;;;;;;;13.28;43.64;99419.34;6239701;23;20004;-88
2023/01/03 03:45:07;;;;;;;1.88;1.00;;;;;;;13.23;43.34;99383.50;6221415;23;20530;-88
2023/01/03 03:47:52;;;;;;;2.05;1.10;;;;;;;13.39;43.41;99414.28;6190598;23;20008;-88
2023/01/03 03:50:30;;;;;;;1.38;0.80;;;;;;;13.29;43.57;99399.50;6215118;23;20062;-88
2023/01/03 03:52:58;;;;;;;0.90;0.80;;;;;;;13.32;43.55;99399.06;6215862;23;20004;-88
2023/01/03 03:55:31;;;;;;;1.75;0.88;;;;;;;13.14;43.14;99372.28;6214322;23;20438;-88
2023/01/03 03:58:02;;;;;;;1.95;0.98;;;;;;;13.31;43.59;99392.09;6189966;23;20083;-88
2023/01/03 04:00:30;;;;;;;1.80;0.98;;;;;;;13.41;43.44;99396.88;6190295;23;20376;-88
2023/01/03 04:02:56;;;;;;;2.10;0.90;;;;;;;13.17;43.43;99362.97;6240069;23;19984;-88
2023/01/03 04:05:22;;;;;;;1.73;1.10;;;;;;;13.29;43.23;99383.41;6214322;23;20200;-88
2023/01/03 04:07:48;;;;;;;2.30;1.10;;;;;;;13.18;43.32;99352.00;6214691;23;20057;-88
2023/01/03 04:10:18;;;;;;;2.95;1.20;;;;;;;13.33;43.24;99376.56;6240462;22;20027;-88
2023/01/03 04:12:47;;;;;;;1.30;0.80;;;;;;;13.41;43.33;99385.31;6190790;23;20095;-88
2023/01/03 04:15:13;;;;;;;1.48;1.00;;;;;;;13.31;43.35;99362.56;6188663;23;20380;-88
2023/01/03 04:17:39;;;;;;;1.50;0.70;;;;;;;13.32;42.95;99364.19;6188920;23;20012;-88
2023/01/03 04:20:05;;;;;;;2.20;0.90;;;;;;;13.37;42.99;99374.25;6189211;23;20445;-88
2023/01/03 04:22:31;;;;;;;2.58;1.10;;;;;;;13.46;43.41;99380.91;6213671;23;20089;-88
2023/01/03 04:24:56;;;;;;;1.88;1.10;;;;;;;13.68;43.04;99410.69;6188954;23;20219;-89
2023/01/03 04:27:22;;;;;;;1.10;0.80;;;;;;;13.68;43.17;99413.38;6213750;23;20508;-88
2023/01/03 04:29:48;;;;;;;1.90;0.93;;;;;;;13.51;43.31;99390.94;6216619;23;20131;-88
2023/01/03 04:32:14;;;;;;;1.50;1.00;;;;;;;13.53;42.95;99375.41;6216349;23;20058;-88
2023/01/03 04:34:39;;;;;;;1.20;0.80;;;;;;;13.63;43.12;99389.09;6215737;23;20432;-88
2023/01/03 04:37:08;;;;;;;1.35;0.80;;;;;;;13.47;43.34;99362.91;6243298;22;20018;-88
2023/01/03 04:39:33;;;;;;;1.63;0.90;;;;;;;13.52;42.84;99368.41;6243264;22;20004;-88
2023/01/03 04:42:00;;;;;;;1.63;0.90;;;;;;;13.51;43.09;99369.47;6191131;23;20004;-88
2023/01/03 04:44:26;;;;;;;1.55;0.68;;;;;;;13.49;43.09;99360.84;6241859;22;20492;-88
2023/01/03 04:46:52;;;;;;;1.92;0.90;;;;;;;13.57;42.77;99365.84;6241780;23;20004;-88
2023/01/03 04:49:19;;;;;;;2.83;0.90;;;;;;;13.59;43.04;99369.13;6240375;23;20023;-88
2023/01/03 04:51:47;;;;;;;2.90;1.05;;;;;;;13.40;43.20;99335.38;6216101;23;20004;-88
2023/01/03 04:54:13;;;;;;;1.33;0.65;;;;;;;13.67;43.03;99379.50;6190398;23;20018;-88
2023/01/03 04:56:39;;;;;;;1.90;0.88;;;;;;;13.72;42.82;99384.19;6190446;23;20011;-88
2023/01/03 04:59:08;;;;;;;1.92;0.90;;;;;;;13.75;43.16;99380.25;6215327;23;20035;-88
2023/01/03 05:01:34;;;;;;;2.70;0.90;;;;;;;13.60;43.19;99357.34;6242044;22;20007;-88
2023/01/03 05:04:00;;;;;;;1.15;0.85;;;;;;;13.89;42.98;99393.19;6190392;23;20031;-88
2023/01/03 05:06:26;;;;;;;1.27;0.88;;;;;;;13.73;42.83;99366.22;6240672;23;20000;-88
2023/01/03 05:08:52;;;;;;;1.80;1.00;;;;;;;13.84;42.86;99386.88;6239262;23;20000;-88
2023/01/03 05:11:17;;;;;;;2.58;0.80;;;;;;;13.81;42.95;99368.53;6239251;23;20065;-88
2023/01/03 05:13:47;;;;;;;2.15;0.98;;;;;;;13.75;43.09;99354.19;6188316;23;20008;-88
2023/01/03 05:16:13;;;;;;;2.42;0.85;;;;;;;13.92;42.90;99380.34;6189139;23;20235;-88
2023/01/03 05:18:39;;;;;;;1.77;0.80;;;;;;;13.84;42.74;99368.09;6213870;23;20016;-88
2023/01/03 05:26:40;;;;;;;1.17;0.70;;;;;;;13.94;42.94;99378.25;6219769;23;20486;-89
2023/01/03 05:29:06;;;;;;;1.73;0.98;;;;;;;14.02;42.79;99394.00;6190101;23;20004;-88
2023/01/03 05:31:32;;;;;;;0.90;0.63;;;;;;;13.90;42.80;99369.81;6190207;23;20082;-89
2023/01/03 05:33:58;;;;;;;1.52;0.90;;;;;;;14.02;42.64;99384.09;6190389;23;20031;-89
2023/01/03 05:36:24;;;;;;;1.83;1.13;;;;;;;14.00;43.00;99372.72;6191053;23;20008;-88
2023/01/03 05:38:49;;;;;;;2.28;0.80;;;;;;;13.96;42.73;99360.84;6189981;23;20066;-89
2023/01/03 05:41:58;;;;;;;0.73;0.68;;;;;;;13.90;42.81;99361.75;6190012;23;20015;-88
2023/01/03 05:44:04;;;;;;;2.38;0.70;;;;;;;14.13;42.90;99400.44;6219734;23;20000;-89
2023/01/03 05:46:30;;;;;;;0.80;0.70;;;;;;;14.03;42.79;99390.28;6188797;23;20395;-89
2023/01/03 05:48:56;;;;;;;1.50;0.85;;;;;;;14.17;42.64;99404.28;6190655;23;20361;-88
2023/01/03 05:51:21;;;;;;;1.33;0.80;;;;;;;14.18;42.66;99395.16;6190004;23;20099;-88
2023/01/03 05:53:47;;;;;;;1.02;0.82;;;;;;;14.11;42.74;99387.22;6190308;23;20088;-88
2023/01/03 05:56:13;;;;;;;1.20;0.75;;;;;;;14.11;42.44;99391.75;6190352;23;20008;-88
2023/01/03 05:58:41;;;;;;;1.48;0.82;;;;;;;14.31;42.42;99416.41;6190337;23;20004;-88
2023/01/03 06:01:10;;;;;;;1.42;0.70;;;;;;;14.06;42.46;99385.25;6189745;23;20086;-88
2023/01/03 06:03:35;;;;;;;1.08;0.80;;;;;;;14.13;42.46;99392.38;6190298;23;20337;-88
2023/01/03 06:06:05;;;;;;;1.23;0.82;;;;;;;14.18;42.44;99401.34;6190169;23;20008;-88
2023/01/03 06:08:31;;;;;;;1.60;0.90;;;;;;;14.06;42.53;99387.94;6215610;23;20322;-89
2023/01/03 06:10:57;;;;;;;2.30;0.88;;;;;;;14.37;42.46;99423.53;6190862;23;19996;-89
2023/01/03 06:13:23;;;;;;;1.00;0.80;;;;;;;14.15;42.73;99395.63;6189544;23;20015;-89
2023/01/03 06:17:53;;;;;;;1.52;0.80;;;;;;;14.39;42.28;99428.69;6214504;23;20023;-88
2023/01/03 06:18:35;;;;;;;1.90;0.80;;;;;;;14.18;42.30;99389.78;6219053;23;20016;-89
2023/01/03 06:21:07;;;;;;;1.80;0.90;;;;;;;14.43;42.28;99430.63;6190039;23;20011;-88
2023/01/03 06:23:32;;;;;;;1.60;0.70;;;;;;;14.36;42.43;99429.94;6189517;23;20082;-88
2023/01/03 06:26:02;;;;;;;0.82;0.73;;;;;;;14.31;42.37;99421.78;6189891;23;20004;-88
2023/01/03 06:28:28;;;;;;;1.60;0.77;;;;;;;14.32;42.54;99415.34;6215508;23;20054;-89
2023/01/03 06:30:54;;;;;;;1.45;0.77;;;;;;;14.32;42.38;99414.53;6190287;23;20051;-89
2023/01/03 06:33:19;;;;;;;1.17;0.63;;;;;;;14.44;42.22;99431.47;6189597;23;20004;-88
2023/01/03 06:35:45;;;;;;;0.60;0.60;;;;;;;14.26;42.38;99413.59;6215030;23;20086;-88
2023/01/03 06:38:11;;;;;;;2.05;1.15;;;;;;;14.24;42.27;99413.84;6189717;23;20077;-88
2023/01/03 06:40:37;;;;;;;1.65;0.90;;;;;;;14.24;42.27;99416.53;6189822;23;20008;-89
2023/01/03 06:43:02;;;;;;;1.05;0.73;;;;;;;14.46;42.17;99446.28;6190231;23;20007;-88
2023/01/03 06:53:41;;;;;;;1.23;0.70;;;;;;;14.58;42.32;99464.28;6219904;23;20011;-88
2023/01/03 06:56:07;;;;;;;1.55;1.02;;;;;;;14.33;42.20;99430.44;6190408;23;20008;-89
2023/01/03 06:58:33;;;;;;;1.55;0.80;;;;;;;14.40;42.08;99458.00;6189794;23;20345;-88
2023/01/03 07:01:01;;;;;;;1.25;0.75;;;;;;;14.44;42.25;99451.09;6189600;23;20091;-88
2023/01/03 07:03:27;;;;;;;2.03;0.85;;;;;;;14.39;41.97;99450.97;6188985;23;20008;-88
2023/01/03 07:05:52;;;;;;;1.63;0.98;;;;;;;14.57;42.12;99478.78;6190061;23;20054;-88
2023/01/03 07:08:18;;;;;;;1.52;0.77;;;;;;;14.34;42.05;99440.13;6190511;23;20083;-88
2023/01/03 07:10:44;;;;;;;1.42;1.00;;;;;;;14.69;41.86;99486.88;6190006;23;20004;-88
2023/01/03 07:15:54;;;;;;;1.35;0.95;;;;;;;14.49;41.90;99469.22;6218657;23;20511;-88
2023/01/03 07:18:20;;;;;;;0.80;0.70;;;;;;;14.54;41.72;99479.25;6189456;23;20024;-88
2023/01/03 07:20:46;;;;;;;2.63;0.85;;;;;;;14.61;41.83;99486.19;6214394;23;20016;-88
2023/01/03 07:23:11;;;;;;;1.35;0.88;;;;;;;14.39;42.10;99458.25;6189278;23;20016;-88
2023/01/03 07:25:41;;;;;;;1.30;0.95;;;;;;;14.52;42.10;99470.59;6189629;23;20004;-88
2023/01/03 07:28:11;;;;;;;2.35;1.00;;;;;;;14.67;42.05;99505.91;6190419;23;20004;-88
2023/01/03 07:30:41;;;;;;;1.77;0.93;;;;;;;14.45;41.79;99471.56;6189797;23;20079;-88
2023/01/03 07:33:08;;;;;;;1.35;0.90;;;;;;;14.58;41.84;99496.56;6189839;23;20008;-88
2023/01/03 07:35:34;;;;;;;1.30;0.88;;;;;;;14.74;42.14;99520.06;6188696;23;20019;-88
2023/01/03 07:38:00;;;;;;;0.80;0.80;;;;;;;14.76;41.69;99520.66;6240099;23;20015;-88
2023/01/03 07:40:25;;;;;;;1.77;0.93;;;;;;;14.61;41.82;99494.25;6189637;23;20008;-88
2023/01/03 07:45:39;;;;;;;1.38;0.90;;;;;;;14.70;41.95;99515.41;6218340;23;20395;-88
2023/01/03 07:48:04;;;;;;;1.45;0.90;;;;;;;14.87;41.54;99547.75;6189720;23;20004;-89
2023/01/03 07:50:30;;;;;;;2.33;0.65;;;;;;;14.69;41.57;99533.38;6214460;23;20371;-88
2023/01/03 07:52:56;;;;;;;1.50;0.82;;;;;;;14.61;41.99;99515.75;6189291;23;20326;-88
2023/01/03 07:55:22;;;;;;;1.17;0.70;;;;;;;14.80;41.63;99548.72;6188542;23;20070;-88
2023/01/03 07:57:47;;;;;;;1.73;1.00;;;;;;;14.91;41.62;99560.50;6189510;23;20095;-88
2023/01/03 08:00:13;;;;;;;0.93;0.73;;;;;;;14.82;41.79;99567.31;6189174;23;20004;-89
2023/01/03 08:02:39;;;;;;;1.52;1.00;;;;;;;14.77;41.74;99559.94;6189216;23;20138;-88
2023/01/03 08:05:08;;;;;;;0.98;0.80;;;;;;;14.75;41.81;99556.66;6189848;23;20113;-89
2023/01/03 08:07:37;;;;;;;0.80;0.70;;;;;;;14.82;41.52;99578.88;6188963;23;20089;-88
2023/01/03 08:15:31;;;;;;;2.47;1.00;;;;;;;14.83;41.33;99569.75;6217488;23;20617;-88
2023/01/03 08:17:57;;;;;;;1.85;0.90;;;;;;;14.91;41.75;99586.59;6189032;23;20012;-88
2023/01/03 08:20:23;;;;;;;1.02;0.77;;;;;;;14.94;41.60;99595.00;6213719;23;20704;-88
2023/01/03 08:22:48;;;;;;;2.50;0.88;;;;;;;14.72;41.52;99567.88;6188989;23;20004;-88
2023/01/03 08:25:14;;;;;;;2.20;0.93;;;;;;;14.86;41.74;99587.28;6213314;23;20023;-88
2023/01/03 08:27:40;;;;;;;2.35;1.02;;;;;;;14.71;41.62;99562.75;6188996;23;20000;-88
2023/01/03 08:30:06;;;;;;;1.67;0.80;;;;;;;14.81;41.56;99584.50;6189235;23;20018;-88
2023/01/03 08:32:33;;;;;;;1.15;0.75;;;;;;;15.05;41.59;99608.69;6189208;23;20004;-88
2023/01/03 08:34:58;;;;;;;2.10;1.00;;;;;;;14.83;41.63;99577.84;6189080;23;20012;-89
2023/01/03 08:37:24;;;;;;;1.15;0.80;;;;;;;14.91;41.71;99584.72;6188191;23;20062;-89
2023/01/03 08:39:52;;;;;;;1.63;1.00;;;;;;;14.85;41.56;99582.97;6189219;23;20004;-88
2023/01/03 08:42:19;;;;;;;1.30;1.00;;;;;;;14.92;41.49;99594.44;6189015;23;20023;-89
2023/01/03 08:44:46;;;;;;;1.40;0.90;;;;;;;14.95;41.65;99590.44;6189197;23;20012;-89
2023/01/03 08:47:12;;;;;;;2.20;0.80;;;;;;;14.95;41.40;99603.88;6188431;23;20027;-89
2023/01/03 08:49:38;;;;;;;1.10;0.93;;;;;;;14.87;41.36;99585.41;6189291;23;20008;-89
2023/01/03 08:52:04;;;;;;;2.08;1.00;;;;;;;14.90;41.41;99604.63;6188719;23;20015;-88
2023/01/03 08:54:30;;;;;;;1.80;1.00;;;;;;;15.02;41.43;99620.72;6188820;23;20008;-89
2023/01/03 08:56:55;;;;;;;1.65;0.90;;;;;;;14.85;41.30;99593.75;6188578;23;20012;-88
2023/01/03 08:59:21;;;;;;;2.22;0.93;;;;;;;15.06;41.38;99629.16;6187769;23;20651;-88
2023/01/03 09:01:47;;;;;;;1.90;1.02;;;;;;;14.92;41.19;99612.44;6188534;23;20062;-89
2023/01/03 09:04:13;;;;;;;0.98;0.85;;;;;;;14.97;41.36;99607.16;6189279;23;20315;-88
2023/01/03 09:06:38;;;;;;;1.27;0.80;;;;;;;14.91;41.37;99600.03;6189123;23;20437;-88
2023/01/03 09:09:06;;;;;;;0.82;0.75;;;;;;;15.07;41.46;99620.84;6189596;23;20379;-88
2023/01/03 09:11:32;;;;;;;2.50;1.10;;;;;;;15.12;41.64;99641.66;6189590;23;20358;-89
2023/01/03 09:13:58;;;;;;;2.30;1.02;;;;;;;15.04;41.65;99632.09;6189046;23;20011;-89
2023/01/03 09:16:23;;;;;;;1.35;0.80;;;;;;;15.06;41.58;99642.63;6214496;23;20348;-89
2023/01/03 09:18:52;;;;;;;1.30;0.80;;;;;;;14.97;41.35;99631.38;6190213;23;20429;-89
2023/01/03 09:21:18;;;;;;;1.67;0.88;;;;;;;15.07;41.21;99639.69;6191051;23;20329;-89
2023/01/03 09:23:43;;;;;;;2.65;0.88;;;;;;;15.07;41.52;99641.56;6190951;23;20452;-89
2023/01/03 09:26:09;;;;;;;1.70;0.90;;;;;;;15.17;41.35;99656.03;6190004;23;20400;-89
2023/01/03 09:28:35;;;;;;;2.10;0.80;;;;;;;15.14;41.35;99651.16;6190617;23;20471;-88
2023/01/03 09:31:01;;;;;;;1.23;0.90;;;;;;;15.04;41.19;99640.16;6190838;23;20000;-88
2023/01/03 09:33:26;;;;;;;1.33;0.90;;;;;;;14.99;41.45;99626.59;6214532;23;20011;-89
2023/01/03 09:35:53;;;;;;;1.88;1.00;;;;;;;15.28;41.40;99683.19;6187709;23;20011;-88
2023/01/03 09:38:20;;;;;;;2.35;1.00;;;;;;;15.14;41.27;99653.84;6188681;23;20437;-89
2023/01/03 09:40:46;;;;;;;1.88;0.98;;;;;;;15.22;41.44;99663.44;6188469;23;20011;-89
2023/01/03 09:43:16;;;;;;;1.17;0.85;;;;;;;15.24;41.11;99671.25;6187987;23;20039;-88
2023/01/03 09:45:45;;;;;;;2.47;0.90;;;;;;;15.24;41.25;99687.41;6188780;23;20004;-89
2023/01/03 09:48:16;;;;;;;1.77;1.02;;;;;;;15.23;41.23;99669.63;6213377;23;20063;-89
2023/01/03 09:50:42;;;;;;;1.20;0.90;;;;;;;15.15;41.04;99663.53;6190770;23;20071;-88
2023/01/03 10:04:42;;;;;;;1.15;0.80;;;;;;;15.45;41.28;99711.03;6220517;23;20365;-88
2023/01/03 10:07:30;;;;;;;1.60;1.20;;;;;;;15.26;41.25;99674.53;6214597;23;20413;-88
2023/01/03 10:10:05;;;;;;;2.28;0.90;;;;;;;15.46;41.09;99704.59;6192690;23;20392;-88
2023/01/03 10:12:41;;;;;;;1.00;0.80;;;;;;;15.27;41.26;99676.19;6242369;23;20562;-89
2023/01/03 10:15:29;;;;;;;1.48;0.90;;;;;;;15.37;40.98;99693.38;6190144;23;20400;-88
2023/01/03 10:18:22;;;;;;;1.15;0.73;;;;;;;15.52;41.12;99718.97;6193006;23;20397;-88
2023/01/03 10:21:08;;;;;;;1.15;0.70;;;;;;;15.34;40.98;99687.63;6240610;23;20008;-89
2023/01/03 10:23:34;;;;;;;1.63;0.90;;;;;;;15.52;41.07;99722.50;6218449;23;20008;-88
2023/01/03 10:26:00;;;;;;;2.58;1.02;;;;;;;15.38;41.21;99707.66;6190148;23;20062;-88
2023/01/03 10:28:30;;;;;;;1.48;0.98;;;;;;;15.47;40.71;99719.72;6190299;23;20008;-88
2023/01/03 10:31:17;;;;;;;2.13;1.00;;;;;;;15.55;40.86;99726.59;6190998;23;20333;-89
2023/01/03 10:33:45;;;;;;;1.67;0.93;;;;;;;15.41;40.85;99699.09;6240641;23;20518;-89
2023/01/03 10:36:14;;;;;;;1.95;1.00;;;;;;;15.48;40.99;99707.88;6190111;23;20092;-88
2023/01/03 10:38:41;;;;;;;2.45;1.10;;;;;;;15.38;40.97;99704.94;6190666;23;20008;-88
2023/01/03 10:41:19;;;;;;;1.08;0.70;;;;;;;15.57;41.05;99725.31;6190194;23;20023;-89
2023/01/03 10:43:45;;;;;;;1.05;0.80;;;;;;;15.39;41.03;99690.44;6216796;23;20004;-89
2023/01/03 10:46:20;;;;;;;1.98;1.00;;;;;;;15.53;40.95;99728.72;6190814;23;20011;-88
2023/01/03 10:48:50;;;;;;;1.35;1.00;;;;;;;15.35;40.92;99687.41;6215562;23;20014;-89
2023/01/03 10:51:35;;;;;;;1.80;0.85;;;;;;;15.62;40.87;99738.06;6190777;23;20004;-88
2023/01/03 10:54:31;;;;;;;1.60;0.80;;;;;;;15.31;40.67;99693.50;6241277;23;20004;-89
2023/01/03 10:56:57;;;;;;;1.63;0.80;;;;;;;15.48;40.89;99732.09;6201028;23;20015;-88
2023/01/03 10:59:25;;;;;;;1.35;0.85;;;;;;;15.56;40.79;99729.06;6216056;23;20071;-89
2023/01/03 11:02:13;;;;;;;1.20;0.77;;;;;;;15.67;40.96;99735.47;6191033;23;20063;-89
2023/01/03 11:04:39;;;;;;;1.70;0.88;;;;;;;15.53;40.78;99707.97;6240112;23;20086;-88
2023/01/03 11:07:08;;;;;;;1.23;0.90;;;;;;;15.70;40.76;99729.63;6190106;23;20384;-89
2023/01/03 11:09:48;;;;;;;2.13;1.10;;;;;;;15.53;40.76;99718.75;6240762;23;20360;-88
2023/01/03 11:12:28;;;;;;;1.75;1.10;;;;;;;15.68;40.99;99747.91;6191141;23;20087;-88
2023/01/03 11:14:55;;;;;;;1.58;1.00;;;;;;;15.47;40.84;99727.78;6215793;23;20009;-88
2023/01/03 11:17:21;;;;;;;1.00;0.75;;;;;;;15.62;40.90;99753.41;6189780;23;20046;-88
2023/01/03 11:19:47;;;;;;;1.90;1.10;;;;;;;15.45;41.05;99721.78;6190126;23;20065;-89
2023/01/03 11:22:49;;;;;;;1.70;1.10;;;;;;;15.73;40.68;99761.47;6215332;23;20038;-88
2023/01/03 11:25:21;;;;;;;2.50;1.10;;;;;;;15.76;40.81;99765.59;6193562;23;20058;-88
2023/01/03 11:28:14;;;;;;;1.70;1.02;;;;;;;15.58;40.88;99740.41;6239441;23;20008;-88
2023/01/03 11:31:01;;;;;;;1.35;0.80;;;;;;;15.53;40.78;99734.91;6189741;23;20004;-88
2023/01/03 11:33:46;;;;;;;1.67;0.90;;;;;;;15.78;40.73;99771.56;6217584;23;20376;-88
2023/01/03 11:36:48;;;;;;;2.17;1.08;;;;;;;15.62;40.72;99742.63;6238439;23;20103;-88
2023/01/03 11:39:36;;;;;;;1.52;0.98;;;;;;;15.80;40.84;99779.41;6207963;23;20380;-88
2023/01/03 11:42:08;;;;;;;1.95;1.13;;;;;;;15.56;40.64;99758.69;6239951;23;20315;-89
2023/01/03 11:44:57;;;;;;;1.70;1.10;;;;;;;15.83;40.59;99803.19;6214059;23;20008;-89
2023/01/03 11:47:50;;;;;;;1.85;0.85;;;;;;;15.53;40.65;99764.53;6213688;23;20024;-88
2023/01/03 11:50:26;;;;;;;1.45;1.00;;;;;;;15.84;40.71;99797.56;6197688;23;20012;-89
2023/01/03 11:53:01;;;;;;;2.17;1.02;;;;;;;15.64;40.65;99781.72;6214159;23;20026;-89
2023/01/03 11:55:35;;;;;;;2.53;0.88;;;;;;;15.85;40.52;99806.44;6214490;23;20014;-89
2023/01/03 11:58:54;;;;;;;2.63;1.00;;;;;;;15.73;40.66;99791.09;6239370;23;20008;-89
2023/01/03 12:01:47;;;;;;;2.13;0.80;;;;;;;15.85;40.61;99817.22;6069296;23;20010;-89
2023/01/03 12:04:25;;;;;;;1.55;1.05;;;;;;;15.68;40.63;99790.19;6215719;23;20089;-89
2023/01/03 12:06:57;;;;;;;2.28;0.93;;;;;;;15.88;40.65;99822.97;6189820;23;20039;-88
2023/01/03 12:09:44;;;;;;;2.25;1.10;;;;;;;15.90;40.46;99830.81;6238736;23;20008;-89
2023/01/03 12:12:27;;;;;;;2.13;1.00;;;;;;;15.68;40.55;99795.56;6239147;23;20016;-89
2023/01/03 12:15:21;;;;;;;1.65;0.90;;;;;;;15.92;40.52;99836.81;6216086;23;20070;-89
2023/01/03 12:18:15;;;;;;;1.85;1.10;;;;;;;15.79;40.56;99824.38;6214259;23;20437;-89
2023/01/03 12:20:44;;;;;;;1.42;0.80;;;;;;;15.83;40.46;99839.00;6203348;23;20086;-89
2023/01/03 12:23:15;;;;;;;1.73;1.02;;;;;;;15.95;40.37;99852.47;6189170;23;20019;-89
2023/01/03 12:25:43;;;;;;;3.08;1.27;;;;;;;15.61;40.41;99816.41;6239709;23;20361;-88
2023/01/03 12:28:31;;;;;;;1.17;0.80;;;;;;;15.70;40.22;99823.09;6188900;23;20008;-88
2023/01/03 12:31:18;;;;;;;1.95;0.80;;;;;;;15.96;40.27;99865.72;6157592;23;20008;-89
2023/01/03 12:33:55;;;;;;;1.90;1.20;;;;;;;15.73;40.45;99825.31;6213932;23;20353;-89
2023/01/03 12:36:26;;;;;;;1.88;1.02;;;;;;;15.99;40.22;99872.53;6190712;23;20430;-89
2023/01/03 12:39:24;;;;;;;1.60;1.17;;;;;;;15.98;40.51;99875.47;6239244;23;20008;-89
2023/01/03 12:42:23;;;;;;;1.20;0.80;;;;;;;15.78;40.48;99855.09;6175826;23;20070;-89
2023/01/03 12:44:56;;;;;;;3.05;0.93;;;;;;;15.79;40.37;99851.34;6217842;23;20004;-89
2023/01/03 12:47:33;;;;;;;1.75;1.17;;;;;;;15.84;40.37;99864.09;6214889;23;20343;-89